sensor_id;sensor_type;location;lat;lon;timestamp;P1;durP1;ratioP1;P2;durP2;ratioP2
53115;SDS011;39010;48.088;7.954;2022-10-16T10:33:24;9.50;;;1.70;;
53115;SDS011;39010;48.088;7.954;2022-10-16T10:36:42;11.85;;;1.60;;
53115;SDS011;39010;48.088;7.954;2022-10-16T10:41:40;7.75;;;1.50;;
53115;SDS011;39010;48.088;7.954;2022-10-16T10:46:57;6.43;;;1.95;;
53115;SDS011;39010;48.088;7.954;2022-10-16T10:49:54;16.17;;;2.00;;
53115;SDS011;39010;48.088;7.954;2022-10-16T10:56:14;7.47;;;1.80;;
53115;SDS011;39010;48.088;7.954;2022-10-16T11:04:42;13.07;;;1.90;;
53115;SDS011;39010;48.088;7.954;2022-10-16T11:07:28;6.82;;;2.05;;
53115;SDS011;39010;48.088;7.954;2022-10-16T11:10:04;9.18;;;2.20;;
53115;SDS011;39010;48.088;7.954;2022-10-16T11:12:40;13.98;;;3.25;;
53115;SDS011;39010;48.088;7.954;2022-10-16T11:15:15;9.18;;;1.98;;
53115;SDS011;39010;48.088;7.954;2022-10-16T11:17:48;16.40;;;2.70;;
53115;SDS011;39010;48.088;7.954;2022-10-16T11:20:45;10.55;;;1.80;;
53115;SDS011;39010;48.088;7.954;2022-10-16T11:26:08;15.27;;;2.30;;
53115;SDS011;39010;48.088;7.954;2022-10-16T11:28:48;10.13;;;2.03;;
53115;SDS011;39010;48.088;7.954;2022-10-16T11:31:32;11.45;;;1.90;;
53115;SDS011;39010;48.088;7.954;2022-10-16T11:39:45;8.10;;;2.00;;
53115;SDS011;39010;48.088;7.954;2022-10-16T11:42:16;7.60;;;1.80;;
53115;SDS011;39010;48.088;7.954;2022-10-16T11:50:56;12.97;;;4.87;;
53115;SDS011;39010;48.088;7.954;2022-10-16T11:53:34;11.02;;;3.25;;
53115;SDS011;39010;48.088;7.954;2022-10-16T11:56:15;9.65;;;3.17;;
53115;SDS011;39010;48.088;7.954;2022-10-16T11:58:51;15.82;;;3.60;;
53115;SDS011;39010;48.088;7.954;2022-10-16T12:01:42;9.38;;;1.70;;
53115;SDS011;39010;48.088;7.954;2022-10-16T12:04:21;8.73;;;2.10;;
53115;SDS011;39010;48.088;7.954;2022-10-16T12:07:12;6.10;;;1.77;;
53115;SDS011;39010;48.088;7.954;2022-10-16T12:09:44;5.95;;;1.60;;
53115;SDS011;39010;48.088;7.954;2022-10-16T12:12:27;6.45;;;1.77;;
53115;SDS011;39010;48.088;7.954;2022-10-16T12:18:21;10.65;;;1.80;;
53115;SDS011;39010;48.088;7.954;2022-10-16T12:20:56;6.20;;;1.40;;
53115;SDS011;39010;48.088;7.954;2022-10-16T12:23:32;9.43;;;1.52;;
53115;SDS011;39010;48.088;7.954;2022-10-16T12:26:03;6.60;;;1.60;;
53115;SDS011;39010;48.088;7.954;2022-10-16T12:28:33;8.85;;;1.95;;
53115;SDS011;39010;48.088;7.954;2022-10-16T12:31:01;4.05;;;1.48;;
53115;SDS011;39010;48.088;7.954;2022-10-16T12:33:30;2.33;;;1.30;;
53115;SDS011;39010;48.088;7.954;2022-10-16T12:36:00;14.35;;;1.77;;
53115;SDS011;39010;48.088;7.954;2022-10-16T12:38:36;4.32;;;1.58;;
53115;SDS011;39010;48.088;7.954;2022-10-16T12:41:11;4.43;;;1.80;;
53115;SDS011;39010;48.088;7.954;2022-10-16T12:43:44;11.95;;;5.93;;
53115;SDS011;39010;48.088;7.954;2022-10-16T12:48:40;10.05;;;2.25;;
53115;SDS011;39010;48.088;7.954;2022-10-16T12:59:46;4.10;;;1.52;;
53115;SDS011;39010;48.088;7.954;2022-10-16T13:10:58;7.15;;;2.30;;
53115;SDS011;39010;48.088;7.954;2022-10-16T13:16:21;6.22;;;2.03;;
53115;SDS011;39010;48.088;7.954;2022-10-16T13:27:12;7.50;;;1.80;;
53115;SDS011;39010;48.088;7.954;2022-10-16T13:29:59;8.40;;;2.25;;
53115;SDS011;39010;48.088;7.954;2022-10-16T13:32:28;8.73;;;2.50;;
53115;SDS011;39010;48.088;7.954;2022-10-16T13:34:55;8.55;;;2.33;;
53115;SDS011;39010;48.088;7.954;2022-10-16T13:37:24;7.88;;;2.20;;
53115;SDS011;39010;48.088;7.954;2022-10-16T13:40:02;11.05;;;2.60;;
53115;SDS011;39010;48.088;7.954;2022-10-16T13:42:33;9.82;;;2.40;;
53115;SDS011;39010;48.088;7.954;2022-10-16T13:45:00;16.40;;;2.35;;
53115;SDS011;39010;48.088;7.954;2022-10-16T13:47:28;9.52;;;2.25;;
53115;SDS011;39010;48.088;7.954;2022-10-16T13:50:03;9.40;;;2.10;;
53115;SDS011;39010;48.088;7.954;2022-10-16T13:52:30;11.60;;;1.90;;
53115;SDS011;39010;48.088;7.954;2022-10-16T13:54:57;8.25;;;1.73;;
53115;SDS011;39010;48.088;7.954;2022-10-16T13:57:27;6.50;;;1.70;;
53115;SDS011;39010;48.088;7.954;2022-10-16T13:59:54;9.07;;;1.98;;
53115;SDS011;39010;48.088;7.954;2022-10-16T14:02:25;10.52;;;2.08;;
53115;SDS011;39010;48.088;7.954;2022-10-16T14:05:01;6.97;;;1.85;;
53115;SDS011;39010;48.088;7.954;2022-10-16T14:07:31;7.70;;;2.22;;
53115;SDS011;39010;48.088;7.954;2022-10-16T14:10:01;6.63;;;1.73;;
53115;SDS011;39010;48.088;7.954;2022-10-16T14:12:31;7.85;;;1.70;;
53115;SDS011;39010;48.088;7.954;2022-10-16T14:14:59;5.53;;;1.60;;
53115;SDS011;39010;48.088;7.954;2022-10-16T14:19:58;11.35;;;2.00;;
53115;SDS011;39010;48.088;7.954;2022-10-16T14:22:30;7.88;;;1.90;;
53115;SDS011;39010;48.088;7.954;2022-10-16T14:25:00;9.63;;;2.08;;
53115;SDS011;39010;48.088;7.954;2022-10-16T14:27:32;8.13;;;1.92;;
53115;SDS011;39010;48.088;7.954;2022-10-16T14:30:20;9.80;;;1.83;;
53115;SDS011;39010;48.088;7.954;2022-10-16T14:32:53;10.07;;;1.90;;
53115;SDS011;39010;48.088;7.954;2022-10-16T14:38:01;3.75;;;1.83;;
53115;SDS011;39010;48.088;7.954;2022-10-16T14:40:32;5.45;;;1.88;;
53115;SDS011;39010;48.088;7.954;2022-10-16T14:43:01;8.35;;;1.90;;
53115;SDS011;39010;48.088;7.954;2022-10-16T14:45:32;4.85;;;1.52;;
53115;SDS011;39010;48.088;7.954;2022-10-16T14:48:03;9.95;;;2.03;;
53115;SDS011;39010;48.088;7.954;2022-10-16T14:50:45;7.10;;;1.70;;
53115;SDS011;39010;48.088;7.954;2022-10-16T14:53:12;11.07;;;1.40;;
53115;SDS011;39010;48.088;7.954;2022-10-16T14:55:39;6.80;;;1.73;;
53115;SDS011;39010;48.088;7.954;2022-10-16T14:58:18;9.18;;;1.70;;
53115;SDS011;39010;48.088;7.954;2022-10-16T15:00:47;6.47;;;1.75;;
53115;SDS011;39010;48.088;7.954;2022-10-16T15:03:14;13.02;;;2.25;;
53115;SDS011;39010;48.088;7.954;2022-10-16T15:05:40;11.57;;;1.80;;
53115;SDS011;39010;48.088;7.954;2022-10-16T15:08:07;11.15;;;2.65;;
53115;SDS011;39010;48.088;7.954;2022-10-16T15:10:36;12.45;;;2.40;;
53115;SDS011;39010;48.088;7.954;2022-10-16T15:13:05;5.30;;;1.73;;
53115;SDS011;39010;48.088;7.954;2022-10-16T15:15:33;5.68;;;1.83;;
53115;SDS011;39010;48.088;7.954;2022-10-16T15:18:02;5.60;;;1.75;;
53115;SDS011;39010;48.088;7.954;2022-10-16T15:20:31;7.60;;;2.40;;
53115;SDS011;39010;48.088;7.954;2022-10-16T15:23:05;6.78;;;1.65;;
53115;SDS011;39010;48.088;7.954;2022-10-16T15:25:43;8.55;;;1.75;;
53115;SDS011;39010;48.088;7.954;2022-10-16T15:28:15;7.70;;;1.90;;
53115;SDS011;39010;48.088;7.954;2022-10-16T15:30:42;5.35;;;2.00;;
53115;SDS011;39010;48.088;7.954;2022-10-16T15:33:14;6.05;;;1.60;;
53115;SDS011;39010;48.088;7.954;2022-10-16T15:35:44;7.07;;;2.22;;
53115;SDS011;39010;48.088;7.954;2022-10-16T15:38:14;6.95;;;2.05;;
53115;SDS011;39010;48.088;7.954;2022-10-16T15:40:40;5.97;;;2.00;;
53115;SDS011;39010;48.088;7.954;2022-10-16T15:43:07;3.53;;;1.80;;
53115;SDS011;39010;48.088;7.954;2022-10-16T15:45:34;6.88;;;2.15;;
53115;SDS011;39010;48.088;7.954;2022-10-16T15:48:01;8.95;;;2.05;;
53115;SDS011;39010;48.088;7.954;2022-10-16T15:50:28;7.13;;;1.88;;
53115;SDS011;39010;48.088;7.954;2022-10-16T15:52:56;9.63;;;2.10;;
53115;SDS011;39010;48.088;7.954;2022-10-16T15:55:23;6.35;;;2.05;;
53115;SDS011;39010;48.088;7.954;2022-10-16T15:57:50;8.15;;;2.08;;
53115;SDS011;39010;48.088;7.954;2022-10-16T16:00:18;9.82;;;2.40;;
53115;SDS011;39010;48.088;7.954;2022-10-16T16:02:50;9.95;;;1.98;;
53115;SDS011;39010;48.088;7.954;2022-10-16T16:05:19;10.30;;;2.22;;
53115;SDS011;39010;48.088;7.954;2022-10-16T16:07:47;7.40;;;2.28;;
53115;SDS011;39010;48.088;7.954;2022-10-16T16:10:15;5.97;;;2.35;;
53115;SDS011;39010;48.088;7.954;2022-10-16T16:12:43;5.28;;;2.65;;
53115;SDS011;39010;48.088;7.954;2022-10-16T16:15:09;8.77;;;2.22;;
53115;SDS011;39010;48.088;7.954;2022-10-16T16:17:36;11.32;;;3.70;;
53115;SDS011;39010;48.088;7.954;2022-10-16T16:20:03;8.80;;;2.13;;
53115;SDS011;39010;48.088;7.954;2022-10-16T16:22:31;10.10;;;2.80;;
53115;SDS011;39010;48.088;7.954;2022-10-16T16:24:57;7.32;;;2.45;;
53115;SDS011;39010;48.088;7.954;2022-10-16T16:27:24;11.50;;;2.45;;
53115;SDS011;39010;48.088;7.954;2022-10-16T16:29:51;7.40;;;2.58;;
53115;SDS011;39010;48.088;7.954;2022-10-16T16:32:19;14.52;;;2.92;;
53115;SDS011;39010;48.088;7.954;2022-10-16T16:34:46;9.80;;;2.30;;
53115;SDS011;39010;48.088;7.954;2022-10-16T16:37:13;5.60;;;2.08;;
53115;SDS011;39010;48.088;7.954;2022-10-16T16:39:40;9.45;;;2.70;;
53115;SDS011;39010;48.088;7.954;2022-10-16T16:42:07;4.28;;;2.03;;
53115;SDS011;39010;48.088;7.954;2022-10-16T16:44:33;5.95;;;2.40;;
53115;SDS011;39010;48.088;7.954;2022-10-16T16:47:02;9.95;;;2.72;;
53115;SDS011;39010;48.088;7.954;2022-10-16T16:49:29;8.15;;;2.35;;
53115;SDS011;39010;48.088;7.954;2022-10-16T16:51:56;8.75;;;2.55;;
53115;SDS011;39010;48.088;7.954;2022-10-16T16:54:22;6.65;;;2.67;;
53115;SDS011;39010;48.088;7.954;2022-10-16T16:56:49;5.93;;;2.45;;
53115;SDS011;39010;48.088;7.954;2022-10-16T16:59:17;9.23;;;2.33;;
53115;SDS011;39010;48.088;7.954;2022-10-16T17:01:46;5.45;;;2.58;;
53115;SDS011;39010;48.088;7.954;2022-10-16T17:04:16;5.57;;;2.10;;
53115;SDS011;39010;48.088;7.954;2022-10-16T17:06:42;10.27;;;2.70;;
53115;SDS011;39010;48.088;7.954;2022-10-16T17:09:09;11.40;;;2.20;;
53115;SDS011;39010;48.088;7.954;2022-10-16T17:11:39;7.05;;;2.45;;
53115;SDS011;39010;48.088;7.954;2022-10-16T17:14:07;6.05;;;2.25;;
53115;SDS011;39010;48.088;7.954;2022-10-16T17:16:36;9.38;;;2.78;;
53115;SDS011;39010;48.088;7.954;2022-10-16T17:19:07;9.45;;;2.63;;
53115;SDS011;39010;48.088;7.954;2022-10-16T17:21:36;9.30;;;2.95;;
53115;SDS011;39010;48.088;7.954;2022-10-16T17:24:02;9.73;;;3.08;;
53115;SDS011;39010;48.088;7.954;2022-10-16T17:26:29;11.80;;;3.50;;
53115;SDS011;39010;48.088;7.954;2022-10-16T17:28:58;12.40;;;3.92;;
53115;SDS011;39010;48.088;7.954;2022-10-16T17:31:28;7.68;;;3.58;;
53115;SDS011;39010;48.088;7.954;2022-10-16T17:33:57;11.27;;;2.70;;
53115;SDS011;39010;48.088;7.954;2022-10-16T17:36:25;5.85;;;2.60;;
53115;SDS011;39010;48.088;7.954;2022-10-16T17:38:54;17.35;;;3.85;;
53115;SDS011;39010;48.088;7.954;2022-10-16T17:41:26;10.32;;;3.70;;
53115;SDS011;39010;48.088;7.954;2022-10-16T17:43:52;13.55;;;3.80;;
53115;SDS011;39010;48.088;7.954;2022-10-16T17:46:20;9.73;;;3.35;;
53115;SDS011;39010;48.088;7.954;2022-10-16T17:48:49;12.73;;;4.35;;
53115;SDS011;39010;48.088;7.954;2022-10-16T17:51:21;12.27;;;3.22;;
53115;SDS011;39010;48.088;7.954;2022-10-16T17:53:52;8.95;;;3.08;;
53115;SDS011;39010;48.088;7.954;2022-10-16T17:56:20;7.65;;;2.78;;
53115;SDS011;39010;48.088;7.954;2022-10-16T17:58:49;7.55;;;2.70;;
53115;SDS011;39010;48.088;7.954;2022-10-16T18:01:18;9.38;;;2.90;;
53115;SDS011;39010;48.088;7.954;2022-10-16T18:03:50;11.98;;;3.05;;
53115;SDS011;39010;48.088;7.954;2022-10-16T18:06:22;12.98;;;3.63;;
53115;SDS011;39010;48.088;7.954;2022-10-16T18:08:52;10.07;;;3.40;;
53115;SDS011;39010;48.088;7.954;2022-10-16T18:11:20;14.02;;;3.40;;
53115;SDS011;39010;48.088;7.954;2022-10-16T18:13:50;11.38;;;3.55;;
53115;SDS011;39010;48.088;7.954;2022-10-16T18:16:25;10.63;;;3.53;;
53115;SDS011;39010;48.088;7.954;2022-10-16T18:19:22;13.43;;;3.35;;
53115;SDS011;39010;48.088;7.954;2022-10-16T18:21:50;12.40;;;3.50;;
53115;SDS011;39010;48.088;7.954;2022-10-16T18:24:34;9.95;;;3.63;;
53115;SDS011;39010;48.088;7.954;2022-10-16T18:27:02;9.55;;;3.85;;
53115;SDS011;39010;48.088;7.954;2022-10-16T18:29:29;11.38;;;3.30;;
53115;SDS011;39010;48.088;7.954;2022-10-16T18:31:57;11.13;;;3.63;;
53115;SDS011;39010;48.088;7.954;2022-10-16T18:34:24;10.05;;;3.13;;
53115;SDS011;39010;48.088;7.954;2022-10-16T18:36:53;13.23;;;3.65;;
53115;SDS011;39010;48.088;7.954;2022-10-16T18:39:21;17.95;;;4.60;;
53115;SDS011;39010;48.088;7.954;2022-10-16T18:41:53;9.65;;;3.13;;
53115;SDS011;39010;48.088;7.954;2022-10-16T18:44:26;6.20;;;2.67;;
53115;SDS011;39010;48.088;7.954;2022-10-16T18:46:54;9.88;;;2.97;;
53115;SDS011;39010;48.088;7.954;2022-10-16T18:49:23;7.30;;;2.60;;
53115;SDS011;39010;48.088;7.954;2022-10-16T18:51:52;7.65;;;2.97;;
53115;SDS011;39010;48.088;7.954;2022-10-16T18:54:22;8.95;;;3.10;;
53115;SDS011;39010;48.088;7.954;2022-10-16T18:56:51;9.80;;;3.53;;
53115;SDS011;39010;48.088;7.954;2022-10-16T18:59:19;7.53;;;2.90;;
53115;SDS011;39010;48.088;7.954;2022-10-16T19:01:48;6.90;;;3.00;;
53115;SDS011;39010;48.088;7.954;2022-10-16T19:04:19;8.23;;;2.97;;
53115;SDS011;39010;48.088;7.954;2022-10-16T19:06:49;9.45;;;3.50;;
53115;SDS011;39010;48.088;7.954;2022-10-16T19:09:20;9.13;;;3.30;;
53115;SDS011;39010;48.088;7.954;2022-10-16T19:11:50;8.35;;;3.50;;
53115;SDS011;39010;48.088;7.954;2022-10-16T19:14:22;8.68;;;2.92;;
53115;SDS011;39010;48.088;7.954;2022-10-16T19:16:52;13.27;;;2.95;;
53115;SDS011;39010;48.088;7.954;2022-10-16T19:19:20;6.97;;;2.80;;
53115;SDS011;39010;48.088;7.954;2022-10-16T19:21:49;8.38;;;2.80;;
53115;SDS011;39010;48.088;7.954;2022-10-16T19:24:22;12.18;;;2.85;;
53115;SDS011;39010;48.088;7.954;2022-10-16T19:26:49;7.63;;;2.50;;
53115;SDS011;39010;48.088;7.954;2022-10-16T19:29:17;8.65;;;3.03;;
53115;SDS011;39010;48.088;7.954;2022-10-16T19:31:45;12.68;;;2.80;;
53115;SDS011;39010;48.088;7.954;2022-10-16T19:36:39;6.95;;;2.75;;
53115;SDS011;39010;48.088;7.954;2022-10-16T19:39:09;10.15;;;3.13;;
53115;SDS011;39010;48.088;7.954;2022-10-16T19:41:39;15.73;;;3.08;;
53115;SDS011;39010;48.088;7.954;2022-10-16T19:44:08;10.50;;;3.20;;
53115;SDS011;39010;48.088;7.954;2022-10-16T19:46:36;11.00;;;3.33;;
53115;SDS011;39010;48.088;7.954;2022-10-16T19:49:05;12.50;;;3.20;;
53115;SDS011;39010;48.088;7.954;2022-10-16T19:51:34;17.10;;;4.10;;
53115;SDS011;39010;48.088;7.954;2022-10-16T19:54:03;6.55;;;3.30;;
53115;SDS011;39010;48.088;7.954;2022-10-16T19:56:33;12.02;;;3.20;;
53115;SDS011;39010;48.088;7.954;2022-10-16T19:59:00;5.95;;;3.05;;
53115;SDS011;39010;48.088;7.954;2022-10-16T20:01:28;8.98;;;3.45;;
53115;SDS011;39010;48.088;7.954;2022-10-16T20:03:56;11.18;;;3.22;;
53115;SDS011;39010;48.088;7.954;2022-10-16T20:06:24;7.15;;;3.13;;
53115;SDS011;39010;48.088;7.954;2022-10-16T20:08:51;10.45;;;2.70;;
53115;SDS011;39010;48.088;7.954;2022-10-16T20:11:21;6.82;;;2.90;;
53115;SDS011;39010;48.088;7.954;2022-10-16T20:13:51;7.55;;;3.25;;
53115;SDS011;39010;48.088;7.954;2022-10-16T20:16:17;10.98;;;3.38;;
53115;SDS011;39010;48.088;7.954;2022-10-16T20:18:46;11.18;;;3.47;;
53115;SDS011;39010;48.088;7.954;2022-10-16T20:21:15;8.68;;;3.63;;
53115;SDS011;39010;48.088;7.954;2022-10-16T20:23:44;7.53;;;3.25;;
53115;SDS011;39010;48.088;7.954;2022-10-16T20:26:12;10.13;;;3.25;;
53115;SDS011;39010;48.088;7.954;2022-10-16T20:28:40;11.95;;;3.20;;
53115;SDS011;39010;48.088;7.954;2022-10-16T20:31:09;11.75;;;3.83;;
53115;SDS011;39010;48.088;7.954;2022-10-16T20:33:43;11.15;;;3.47;;
53115;SDS011;39010;48.088;7.954;2022-10-16T20:36:11;11.00;;;3.10;;
53115;SDS011;39010;48.088;7.954;2022-10-16T20:38:39;5.00;;;2.90;;
53115;SDS011;39010;48.088;7.954;2022-10-16T20:41:06;8.88;;;3.17;;
53115;SDS011;39010;48.088;7.954;2022-10-16T20:43:34;11.15;;;3.17;;
53115;SDS011;39010;48.088;7.954;2022-10-16T20:46:02;17.95;;;4.40;;
53115;SDS011;39010;48.088;7.954;2022-10-16T20:48:30;5.30;;;2.90;;
53115;SDS011;39010;48.088;7.954;2022-10-16T20:50:57;8.32;;;3.45;;
53115;SDS011;39010;48.088;7.954;2022-10-16T20:53:25;7.63;;;3.17;;
53115;SDS011;39010;48.088;7.954;2022-10-16T20:55:52;13.80;;;3.20;;
53115;SDS011;39010;48.088;7.954;2022-10-16T20:58:18;6.97;;;3.10;;
53115;SDS011;39010;48.088;7.954;2022-10-16T21:03:13;6.88;;;3.10;;
53115;SDS011;39010;48.088;7.954;2022-10-16T21:05:42;13.80;;;3.17;;
53115;SDS011;39010;48.088;7.954;2022-10-16T21:08:09;9.13;;;2.63;;
53115;SDS011;39010;48.088;7.954;2022-10-16T21:10:35;7.63;;;3.20;;
53115;SDS011;39010;48.088;7.954;2022-10-16T21:15:28;6.35;;;3.30;;
53115;SDS011;39010;48.088;7.954;2022-10-16T21:20:21;5.75;;;2.78;;
53115;SDS011;39010;48.088;7.954;2022-10-16T21:25:14;15.85;;;3.53;;
53115;SDS011;39010;48.088;7.954;2022-10-16T21:30:08;6.80;;;3.20;;
53115;SDS011;39010;48.088;7.954;2022-10-16T21:32:35;9.35;;;3.30;;
53115;SDS011;39010;48.088;7.954;2022-10-16T21:35:05;8.18;;;2.70;;
53115;SDS011;39010;48.088;7.954;2022-10-16T21:37:33;8.65;;;2.92;;
53115;SDS011;39010;48.088;7.954;2022-10-16T21:39:59;6.60;;;2.70;;
53115;SDS011;39010;48.088;7.954;2022-10-16T21:42:26;12.15;;;2.85;;
53115;SDS011;39010;48.088;7.954;2022-10-16T21:44:53;9.95;;;2.92;;
53115;SDS011;39010;48.088;7.954;2022-10-16T21:47:19;11.30;;;3.15;;
53115;SDS011;39010;48.088;7.954;2022-10-16T21:52:12;6.80;;;3.15;;
53115;SDS011;39010;48.088;7.954;2022-10-16T21:54:39;8.80;;;3.00;;
53115;SDS011;39010;48.088;7.954;2022-10-16T21:59:32;7.40;;;2.80;;
53115;SDS011;39010;48.088;7.954;2022-10-16T22:01:58;8.98;;;2.83;;
53115;SDS011;39010;48.088;7.954;2022-10-16T22:04:27;7.05;;;3.10;;
53115;SDS011;39010;48.088;7.954;2022-10-16T22:06:54;6.47;;;3.08;;
53115;SDS011;39010;48.088;7.954;2022-10-16T22:11:47;11.32;;;3.28;;
53115;SDS011;39010;48.088;7.954;2022-10-16T22:14:18;11.45;;;2.97;;
53115;SDS011;39010;48.088;7.954;2022-10-16T22:16:47;7.88;;;2.90;;
53115;SDS011;39010;48.088;7.954;2022-10-16T22:19:15;9.70;;;3.00;;
53115;SDS011;39010;48.088;7.954;2022-10-16T22:21:44;11.65;;;3.10;;
53115;SDS011;39010;48.088;7.954;2022-10-16T22:24:13;6.28;;;2.75;;
53115;SDS011;39010;48.088;7.954;2022-10-16T22:26:40;7.55;;;2.97;;
53115;SDS011;39010;48.088;7.954;2022-10-16T22:29:07;6.20;;;2.85;;
53115;SDS011;39010;48.088;7.954;2022-10-16T22:31:37;9.68;;;2.72;;
53115;SDS011;39010;48.088;7.954;2022-10-16T22:34:04;8.52;;;2.97;;
53115;SDS011;39010;48.088;7.954;2022-10-16T22:36:30;9.10;;;3.25;;
53115;SDS011;39010;48.088;7.954;2022-10-16T22:38:57;11.07;;;2.78;;
53115;SDS011;39010;48.088;7.954;2022-10-16T22:43:51;11.13;;;2.58;;
53115;SDS011;39010;48.088;7.954;2022-10-16T22:46:19;6.60;;;2.75;;
53115;SDS011;39010;48.088;7.954;2022-10-16T22:48:48;8.38;;;2.65;;
53115;SDS011;39010;48.088;7.954;2022-10-16T22:51:15;5.32;;;2.70;;
53115;SDS011;39010;48.088;7.954;2022-10-16T22:53:43;14.93;;;2.97;;
53115;SDS011;39010;48.088;7.954;2022-10-16T22:56:14;12.23;;;3.00;;
53115;SDS011;39010;48.088;7.954;2022-10-16T22:58:43;7.00;;;3.08;;
53115;SDS011;39010;48.088;7.954;2022-10-16T23:03:47;10.30;;;2.67;;
53115;SDS011;39010;48.088;7.954;2022-10-16T23:08:40;7.45;;;3.00;;
53115;SDS011;39010;48.088;7.954;2022-10-16T23:11:07;6.53;;;2.92;;
53115;SDS011;39010;48.088;7.954;2022-10-16T23:13:38;4.70;;;2.60;;
53115;SDS011;39010;48.088;7.954;2022-10-16T23:16:11;9.32;;;3.53;;
53115;SDS011;39010;48.088;7.954;2022-10-16T23:18:39;8.18;;;2.95;;
53115;SDS011;39010;48.088;7.954;2022-10-16T23:21:07;12.23;;;3.00;;
53115;SDS011;39010;48.088;7.954;2022-10-16T23:23:35;9.65;;;2.70;;
53115;SDS011;39010;48.088;7.954;2022-10-16T23:26:09;12.80;;;3.10;;
53115;SDS011;39010;48.088;7.954;2022-10-16T23:28:43;7.68;;;2.95;;
53115;SDS011;39010;48.088;7.954;2022-10-16T23:31:11;7.07;;;2.70;;
53115;SDS011;39010;48.088;7.954;2022-10-16T23:33:38;10.07;;;2.70;;
53115;SDS011;39010;48.088;7.954;2022-10-16T23:36:06;7.10;;;2.60;;
53115;SDS011;39010;48.088;7.954;2022-10-16T23:38:37;8.82;;;2.80;;
53115;SDS011;39010;48.088;7.954;2022-10-16T23:41:05;6.63;;;2.53;;
53115;SDS011;39010;48.088;7.954;2022-10-16T23:43:32;7.63;;;2.85;;
53115;SDS011;39010;48.088;7.954;2022-10-16T23:48:24;6.25;;;2.60;;
53115;SDS011;39010;48.088;7.954;2022-10-16T23:50:51;7.75;;;3.08;;
53115;SDS011;39010;48.088;7.954;2022-10-16T23:55:44;6.28;;;3.20;;
53115;SDS011;39010;48.088;7.954;2022-10-16T23:58:10;11.98;;;3.10;;
